createdAt,value
2018-06-20T00:00:16.460Z,46.08
2018-06-20T00:02:44.308Z,46.21
2018-06-20T00:05:12.110Z,46.73
2018-06-20T00:07:39.756Z,46.73
2018-06-20T00:10:07.661Z,47.03
2018-06-20T00:12:35.386Z,46.48
2018-06-20T00:15:03.123Z,46.82
2018-06-20T00:17:30.799Z,46.89
2018-06-20T00:19:58.679Z,47.11
2018-06-20T00:22:26.395Z,47.04
2018-06-20T00:24:54.050Z,47.03
2018-06-20T00:27:21.776Z,46.86
2018-06-20T00:29:49.381Z,47.53
2018-06-20T00:32:17.232Z,47.27
2018-06-20T00:34:44.971Z,47.17
2018-06-20T00:37:12.604Z,47.62
2018-06-20T00:39:40.474Z,47.69
2018-06-20T00:42:08.326Z,47.51
2018-06-20T00:44:36.091Z,47.59
2018-06-20T00:47:03.995Z,47.70
2018-06-20T00:49:31.822Z,47.82
2018-06-20T00:51:59.574Z,47.49
2018-06-20T00:54:27.403Z,48.04
2018-06-20T00:56:55.190Z,47.74
2018-06-20T00:59:22.813Z,48.08
2018-06-20T01:01:50.592Z,47.93
2018-06-20T01:04:18.398Z,48.05
2018-06-20T01:06:46.039Z,47.64
2018-06-20T01:09:13.856Z,47.75
2018-06-20T01:11:41.742Z,47.85
2018-06-20T01:14:09.358Z,48.12
2018-06-20T01:16:37.081Z,48.18
2018-06-20T01:19:04.904Z,47.99
2018-06-20T01:21:32.552Z,48.22
2018-06-20T01:24:00.416Z,48.01
2018-06-20T01:26:28.138Z,47.90
2018-06-20T01:28:55.744Z,48.47
2018-06-20T01:31:23.565Z,48.50
2018-06-20T01:33:51.461Z,48.05
2018-06-20T01:36:19.309Z,48.31
2018-06-20T01:38:47.115Z,48.01
2018-06-20T01:41:14.982Z,48.34
2018-06-20T01:43:42.589Z,47.95
2018-06-20T01:46:10.519Z,48.12
2018-06-20T01:48:38.314Z,47.91
2018-06-20T01:51:05.869Z,47.93
2018-06-20T01:53:33.726Z,48.30
2018-06-20T01:56:01.492Z,48.54
2018-06-20T01:58:29.167Z,48.12
2018-06-20T02:00:56.909Z,47.96
2018-06-20T02:03:24.752Z,48.11
2018-06-20T02:05:52.368Z,48.28
2018-06-20T02:08:20.155Z,48.12
2018-06-20T02:10:47.969Z,48.18
2018-06-20T02:13:15.593Z,48.15
2018-06-20T02:15:43.503Z,48.49
2018-06-20T02:18:11.322Z,48.35
2018-06-20T02:20:39.006Z,48.48
2018-06-20T02:23:06.883Z,48.35
2018-06-20T02:25:34.727Z,47.97
2018-06-20T02:28:02.426Z,48.11
2018-06-20T02:30:30.137Z,48.07
2018-06-20T02:32:57.891Z,48.10
2018-06-20T02:35:25.542Z,48.05
2018-06-20T02:37:53.483Z,48.17
2018-06-20T02:40:21.366Z,47.91
2018-06-20T02:42:49.021Z,48.51
2018-06-20T02:45:16.857Z,47.81
2018-06-20T02:47:44.789Z,47.88
2018-06-20T02:50:13.331Z,48.39
2018-06-20T02:52:41.084Z,48.40
2018-06-20T02:55:08.828Z,47.88
2018-06-20T02:57:36.606Z,48.19
2018-06-20T03:00:05.779Z,47.88
2018-06-20T03:02:33.443Z,48.01
2018-06-20T03:05:01.121Z,48.28
2018-06-20T03:07:28.950Z,48.09
2018-06-20T03:09:56.924Z,47.74
2018-06-20T03:12:24.549Z,47.79
2018-06-20T03:14:52.315Z,48.05
2018-06-20T03:17:20.174Z,47.63
2018-06-20T03:19:47.788Z,48.04
2018-06-20T03:22:15.679Z,47.59
2018-06-20T03:24:43.508Z,48.04
2018-06-20T03:27:11.057Z,47.59
2018-06-20T03:29:38.948Z,47.57
2018-06-20T03:32:06.810Z,47.74
2018-06-20T03:34:34.406Z,47.76
2018-06-20T03:37:02.114Z,47.37
2018-06-20T03:39:30.020Z,47.31
2018-06-20T03:41:57.650Z,47.64
2018-06-20T03:44:25.511Z,47.82
2018-06-20T03:46:53.416Z,47.33
2018-06-20T03:49:21.432Z,47.69
2018-06-20T03:51:49.260Z,47.75
2018-06-20T03:54:17.075Z,47.69
2018-06-20T03:56:44.665Z,47.66
2018-06-20T03:59:12.528Z,47.17
2018-06-20T04:01:40.400Z,47.39
2018-06-20T04:04:08.030Z,47.22
2018-06-20T04:06:35.799Z,47.38
2018-06-20T04:09:06.084Z,47.08
2018-06-20T04:11:33.682Z,46.84
2018-06-20T04:14:01.536Z,47.48
2018-06-20T04:16:29.365Z,47.01
2018-06-20T04:18:56.999Z,46.73
2018-06-20T04:21:24.776Z,47.16
2018-06-20T04:23:52.606Z,47.19
2018-06-20T04:26:20.258Z,46.69
2018-06-20T04:28:47.925Z,46.52
2018-06-20T04:31:15.695Z,47.06
2018-06-20T04:33:43.357Z,46.63
2018-06-20T04:36:11.209Z,46.63
2018-06-20T04:38:38.867Z,46.40
2018-06-20T04:41:06.541Z,46.33
2018-06-20T04:43:34.326Z,46.39
2018-06-20T04:46:03.009Z,46.24
2018-06-20T04:48:30.640Z,46.25
2018-06-20T04:50:58.645Z,46.70
2018-06-20T04:53:26.513Z,46.32
2018-06-20T04:55:54.112Z,46.29
2018-06-20T04:58:21.950Z,46.45
2018-06-20T05:00:49.723Z,46.23
2018-06-20T05:03:17.517Z,46.00
2018-06-20T05:05:45.369Z,46.29
2018-06-20T05:08:13.165Z,45.83
2018-06-20T05:10:40.789Z,46.07
2018-06-20T05:13:08.440Z,45.90
2018-06-20T05:15:36.171Z,45.67
2018-06-20T05:18:03.827Z,45.76
2018-06-20T05:20:31.549Z,45.30
2018-06-20T05:22:59.350Z,45.52
2018-06-20T05:25:27.087Z,45.15
2018-06-20T05:27:54.843Z,45.38
2018-06-20T05:30:22.516Z,45.42
2018-06-20T05:32:50.125Z,45.47
2018-06-20T05:35:17.958Z,45.46
2018-06-20T05:37:45.671Z,45.06
2018-06-20T05:40:13.333Z,44.76
2018-06-20T05:42:41.143Z,45.04
2018-06-20T05:45:08.805Z,44.54
2018-06-20T05:47:36.494Z,44.46
2018-06-20T05:50:04.340Z,44.19
2018-06-20T05:52:32.476Z,44.65
2018-06-20T05:55:00.149Z,44.48
2018-06-20T05:57:27.923Z,44.02
2018-06-20T05:59:55.870Z,44.46
2018-06-20T06:02:23.453Z,44.27
2018-06-20T06:04:51.301Z,43.31
2018-06-20T06:07:19.034Z,43.72
2018-06-20T06:09:46.636Z,43.87
2018-06-20T06:12:14.438Z,43.67
2018-06-20T06:14:42.267Z,43.50
2018-06-20T06:17:09.995Z,43.38
2018-06-20T06:19:37.815Z,43.32
2018-06-20T06:22:05.749Z,43.55
2018-06-20T06:24:33.404Z,43.62
2018-06-20T06:27:01.107Z,43.48
2018-06-20T06:29:28.911Z,43.39
2018-06-20T06:31:56.493Z,42.31
2018-06-20T06:34:24.349Z,42.60
2018-06-20T06:36:52.046Z,42.68
2018-06-20T06:39:19.727Z,42.38
2018-06-20T06:41:47.376Z,42.28
2018-06-20T06:44:15.172Z,42.53
2018-06-20T06:46:42.764Z,42.49
2018-06-20T06:49:10.544Z,42.18
2018-06-20T06:51:38.331Z,42.13
2018-06-20T06:54:06.152Z,42.28
2018-06-20T06:56:34.025Z,41.71
2018-06-20T06:59:01.940Z,41.45
2018-06-20T07:01:29.591Z,41.78
2018-06-20T07:03:57.418Z,41.55
2018-06-20T07:06:25.259Z,41.65
2018-06-20T07:08:52.842Z,41.23
2018-06-20T07:11:20.442Z,41.49
2018-06-20T07:13:48.195Z,41.05
2018-06-20T07:16:15.858Z,41.30
2018-06-20T07:18:43.593Z,41.34
2018-06-20T07:21:11.407Z,40.70
2018-06-20T07:23:39.008Z,40.89
2018-06-20T07:26:06.612Z,40.37
2018-06-20T07:28:34.503Z,40.46
2018-06-20T07:31:02.095Z,40.71
2018-06-20T07:33:30.038Z,40.15
2018-06-20T07:35:58.093Z,40.04
2018-06-20T07:38:25.636Z,39.83
2018-06-20T07:40:53.239Z,39.83
2018-06-20T07:43:20.952Z,39.79
2018-06-20T07:45:48.537Z,40.20
2018-06-20T07:48:16.406Z,39.57
2018-06-20T07:50:44.155Z,39.60
2018-06-20T07:53:11.765Z,39.51
2018-06-20T07:55:39.926Z,39.56
2018-06-20T07:58:07.832Z,39.33
2018-06-20T08:00:41.159Z,39.47
2018-06-20T08:03:16.361Z,39.47
2018-06-20T08:05:49.743Z,39.66
2018-06-20T08:08:23.208Z,39.36
2018-06-20T08:10:56.386Z,38.63
2018-06-20T08:13:29.774Z,38.88
2018-06-20T08:16:03.180Z,39.34
2018-06-20T08:18:36.551Z,38.95
2018-06-20T08:21:04.671Z,39.00
2018-06-20T08:23:32.459Z,39.01
2018-06-20T08:26:00.259Z,39.28
2018-06-20T08:28:27.887Z,38.90
2018-06-20T08:30:55.628Z,38.99
2018-06-20T08:33:23.355Z,38.56
2018-06-20T08:35:51.063Z,38.76
2018-06-20T08:38:18.856Z,38.42
2018-06-20T08:40:46.537Z,38.80
2018-06-20T08:43:14.232Z,38.19
2018-06-20T08:45:42.036Z,38.72
2018-06-20T08:48:09.649Z,38.78
2018-06-20T08:50:37.417Z,38.27
2018-06-20T08:53:05.328Z,38.29
2018-06-20T08:55:32.989Z,38.02
2018-06-20T08:58:00.781Z,37.88
2018-06-20T09:00:33.882Z,38.21
2018-06-20T09:03:01.642Z,37.90
2018-06-20T09:05:35.016Z,37.61
2018-06-20T09:08:08.250Z,37.94
2018-06-20T09:10:41.408Z,38.00
2018-06-20T09:13:14.576Z,38.08
2018-06-20T09:15:47.936Z,37.37
2018-06-20T09:18:21.162Z,38.15
2018-06-20T09:20:49.090Z,38.05
2018-06-20T09:23:16.682Z,37.57
2018-06-20T09:25:44.315Z,37.43
2018-06-20T09:28:12.109Z,37.87
2018-06-20T09:30:39.727Z,37.46
2018-06-20T09:33:07.364Z,37.78
2018-06-20T09:35:35.388Z,36.64
2018-06-20T09:38:02.944Z,36.36
2018-06-20T09:40:30.747Z,36.89
2018-06-20T09:42:58.508Z,36.75
2018-06-20T09:45:26.109Z,36.73
2018-06-20T09:47:53.751Z,36.75
2018-06-20T09:50:26.924Z,36.41
2018-06-20T09:52:54.542Z,36.02
2018-06-20T09:55:22.256Z,35.82
2018-06-20T09:57:49.858Z,35.72
2018-06-20T10:00:23.401Z,35.80
2018-06-20T10:02:56.477Z,36.01
2018-06-20T10:05:29.642Z,35.69
2018-06-20T10:08:03.079Z,35.23
2018-06-20T10:10:36.254Z,35.00
2018-06-20T10:13:09.755Z,35.20
2018-06-20T10:15:37.412Z,34.56
2018-06-20T10:18:05.260Z,34.51
2018-06-20T10:20:32.922Z,34.62
2018-06-20T10:23:00.795Z,34.91
2018-06-20T10:25:29.191Z,35.06
2018-06-20T10:27:57.475Z,34.78
2018-06-20T10:30:25.305Z,33.87
2018-06-20T10:32:53.551Z,34.46
2018-06-20T10:35:21.476Z,34.70
2018-06-20T10:37:49.185Z,34.50
2018-06-20T10:40:17.137Z,34.00
2018-06-20T10:42:44.788Z,33.77
2018-06-20T10:45:18.010Z,34.15
2018-06-20T10:47:47.027Z,33.91
2018-06-20T10:50:14.710Z,33.75
2018-06-20T10:52:42.326Z,33.71
2018-06-20T10:55:14.429Z,33.46
2018-06-20T10:57:47.535Z,33.12
2018-06-20T11:00:20.835Z,33.29
2018-06-20T11:03:01.986Z,32.71
2018-06-20T11:05:35.261Z,32.83
2018-06-20T11:08:08.445Z,33.25
2018-06-20T11:10:41.774Z,33.33
2018-06-20T11:13:11.537Z,33.59
2018-06-20T11:15:39.387Z,33.27
2018-06-20T11:18:07.068Z,33.05
2018-06-20T11:20:40.302Z,33.09
2018-06-20T11:23:08.304Z,33.01
2018-06-20T11:25:35.914Z,32.96
2018-06-20T11:28:10.445Z,33.12
2018-06-20T11:30:38.614Z,32.33
2018-06-20T11:33:06.243Z,31.81
2018-06-20T11:35:33.868Z,31.47
2018-06-20T11:38:01.855Z,32.37
2018-06-20T11:40:29.496Z,32.28
2018-06-20T11:42:57.128Z,31.58
2018-06-20T11:45:29.543Z,31.51
2018-06-20T11:47:57.373Z,31.73
2018-06-20T11:50:25.173Z,31.19
2018-06-20T11:52:58.480Z,30.68
2018-06-20T11:55:31.864Z,31.01
2018-06-20T11:58:05.035Z,31.12
2018-06-20T12:00:38.264Z,30.92
2018-06-20T12:03:11.725Z,30.83
2018-06-20T12:05:45.055Z,31.09
2018-06-20T12:08:18.255Z,31.25
2018-06-20T12:10:51.652Z,31.32
2018-06-20T12:13:24.923Z,31.40
2018-06-20T12:15:58.394Z,31.44
2018-06-20T12:18:31.615Z,31.16
2018-06-20T12:21:05.070Z,30.70
2018-06-20T12:23:38.284Z,31.32
2018-06-20T12:26:11.727Z,31.26
2018-06-20T12:28:44.368Z,30.80
2018-06-20T12:31:17.046Z,31.62
2018-06-20T12:33:50.166Z,31.87
2018-06-20T12:36:24.521Z,31.58
2018-06-20T12:38:57.684Z,31.81
2018-06-20T12:41:30.297Z,31.18
2018-06-20T12:44:02.936Z,31.61
2018-06-20T12:46:35.644Z,31.66
2018-06-20T12:49:02.943Z,30.74
2018-06-20T12:51:30.010Z,31.47
2018-06-20T12:53:57.183Z,31.33
2018-06-20T12:56:24.347Z,31.05
2018-06-20T12:58:51.420Z,31.10
2018-06-20T13:01:18.701Z,30.77
2018-06-20T13:03:46.652Z,30.91
2018-06-20T13:06:13.808Z,31.16
2018-06-20T13:08:41.045Z,30.82
2018-06-20T13:11:08.262Z,31.22
2018-06-20T13:13:35.310Z,30.84
2018-06-20T13:16:02.489Z,30.29
2018-06-20T13:18:29.670Z,30.49
2018-06-20T13:20:56.693Z,30.40
2018-06-20T13:23:23.797Z,30.90
2018-06-20T13:25:51.668Z,30.84
2018-06-20T13:28:18.678Z,30.90
2018-06-20T13:30:50.397Z,31.00
2018-06-20T13:33:23.048Z,31.22
2018-06-20T13:35:55.925Z,31.55
2018-06-20T13:38:28.475Z,31.14
2018-06-20T13:41:01.988Z,31.66
2018-06-20T13:44:33.778Z,31.68
2018-06-20T13:47:07.129Z,31.57
2018-06-20T13:49:34.466Z,31.83
2018-06-20T13:52:01.537Z,31.75
2018-06-20T13:54:28.773Z,31.30
2018-06-20T13:56:55.964Z,32.02
2018-06-20T13:59:23.720Z,31.98
2018-06-20T14:01:51.686Z,31.50
2018-06-20T14:04:19.579Z,31.43
2018-06-20T14:06:47.380Z,31.71
2018-06-20T14:09:14.564Z,31.84
2018-06-20T14:11:42.501Z,31.90
2018-06-20T14:14:10.105Z,31.70
2018-06-20T14:16:37.252Z,31.76
2018-06-20T14:19:04.527Z,32.04
2018-06-20T14:21:36.568Z,31.70
2018-06-20T14:24:04.124Z,31.72
2018-06-20T14:26:31.228Z,31.94
2018-06-20T14:28:58.272Z,31.94
2018-06-20T14:31:31.035Z,32.20
2018-06-20T14:34:03.682Z,31.69
2018-06-20T14:36:36.233Z,31.85
2018-06-20T14:39:10.832Z,31.73
2018-06-20T14:41:43.499Z,31.63
2018-06-20T14:44:11.019Z,31.61
2018-06-20T14:46:38.032Z,31.64
2018-06-20T14:49:06.081Z,32.17
2018-06-20T14:51:33.315Z,32.09
2018-06-20T14:54:00.947Z,32.68
2018-06-20T14:56:28.760Z,32.88
2018-06-20T14:58:56.813Z,32.95
2018-06-20T15:01:23.860Z,32.88
2018-06-20T15:03:51.724Z,32.85
2018-06-20T15:06:20.078Z,32.77
2018-06-20T15:08:47.688Z,33.20
2018-06-20T15:11:15.551Z,32.88
2018-06-20T15:13:43.372Z,33.17
2018-06-20T15:16:16.557Z,33.18
2018-06-20T15:18:44.544Z,32.74
2018-06-20T15:21:12.111Z,33.32
2018-06-20T15:23:39.739Z,32.88
2018-06-20T15:26:12.644Z,32.43
2018-06-20T15:28:45.299Z,32.46
2018-06-20T15:31:17.821Z,32.58
2018-06-20T15:33:50.514Z,31.85
2018-06-20T15:36:23.367Z,31.72
2018-06-20T15:38:50.701Z,31.85
2018-06-20T15:41:17.709Z,31.68
2018-06-20T15:43:44.989Z,31.91
2018-06-20T15:46:12.167Z,32.01
2018-06-20T15:48:39.163Z,31.53
2018-06-20T15:51:06.335Z,31.84
2018-06-20T15:53:33.559Z,31.88
2018-06-20T15:56:00.572Z,31.52
2018-06-20T15:58:27.760Z,31.57
2018-06-20T16:00:54.895Z,32.25
2018-06-20T16:03:22.139Z,31.92
2018-06-20T16:05:49.282Z,32.48
2018-06-20T16:08:16.691Z,32.50
2018-06-20T16:10:43.720Z,31.99
2018-06-20T16:13:10.805Z,31.90
2018-06-20T16:15:37.978Z,31.58
2018-06-20T16:18:05.012Z,31.66
2018-06-20T16:20:37.635Z,31.37
2018-06-20T16:23:10.343Z,31.32
2018-06-20T16:25:43.117Z,31.52
2018-06-20T16:28:16.434Z,31.47
2018-06-20T16:30:44.778Z,31.79
2018-06-20T16:33:12.424Z,31.84
2018-06-20T16:35:39.993Z,31.79
2018-06-20T16:38:07.962Z,32.06
2018-06-20T16:40:35.620Z,31.79
2018-06-20T16:43:03.311Z,31.81
2018-06-20T16:45:31.174Z,32.01
2018-06-20T16:47:58.810Z,32.34
2018-06-20T16:50:26.473Z,31.99
2018-06-20T16:52:54.575Z,32.24
2018-06-20T16:55:22.257Z,32.28
2018-06-20T16:57:49.958Z,32.21
2018-06-20T17:00:18.014Z,32.41
2018-06-20T17:02:45.650Z,32.22
2018-06-20T17:05:13.691Z,32.60
2018-06-20T17:07:41.611Z,32.65
2018-06-20T17:10:09.450Z,32.51
2018-06-20T17:12:42.813Z,32.23
2018-06-20T17:15:16.250Z,32.42
2018-06-20T17:17:49.384Z,32.63
2018-06-20T17:20:22.608Z,32.86
2018-06-20T17:22:58.895Z,32.32
2018-06-20T17:25:28.853Z,32.46
2018-06-20T17:27:56.457Z,32.60
2018-06-20T17:30:24.050Z,32.56
2018-06-20T17:32:51.782Z,33.09
2018-06-20T17:35:19.442Z,32.50
2018-06-20T17:37:47.172Z,32.70
2018-06-20T17:40:15.091Z,32.69
2018-06-20T17:42:42.741Z,32.28
2018-06-20T17:45:10.417Z,32.90
2018-06-20T17:47:38.448Z,32.80
2018-06-20T17:50:06.104Z,32.68
2018-06-20T17:52:33.692Z,32.77
2018-06-20T17:55:01.824Z,32.93
2018-06-20T17:57:29.424Z,32.59
2018-06-20T17:59:57.055Z,32.15
2018-06-20T18:02:25.185Z,32.72
2018-06-20T18:04:58.310Z,32.73
2018-06-20T18:07:31.760Z,32.88
2018-06-20T18:10:04.815Z,32.87
2018-06-20T18:12:37.134Z,32.72
2018-06-20T18:15:11.422Z,33.08
2018-06-20T18:17:39.416Z,32.76
2018-06-20T18:20:07.036Z,32.81
2018-06-20T18:22:34.599Z,33.24
2018-06-20T18:25:02.713Z,33.32
2018-06-20T18:27:30.301Z,32.98
2018-06-20T18:29:57.922Z,33.02
2018-06-20T18:32:25.918Z,33.34
2018-06-20T18:34:53.605Z,33.27
2018-06-20T18:37:21.281Z,33.36
2018-06-20T18:39:54.454Z,33.60
2018-06-20T18:42:22.373Z,33.96
2018-06-20T18:44:50.072Z,33.77
2018-06-20T18:47:23.405Z,33.97
2018-06-20T18:49:51.306Z,34.10
2018-06-20T18:52:18.955Z,34.18
2018-06-20T18:54:46.603Z,34.31
2018-06-20T18:57:19.707Z,34.49
2018-06-20T18:59:53.034Z,34.39
2018-06-20T19:02:26.460Z,34.15
2018-06-20T19:04:59.743Z,34.72
2018-06-20T19:07:33.142Z,34.36
2018-06-20T19:10:01.038Z,34.73
2018-06-20T19:12:28.627Z,34.54
2018-06-20T19:14:56.288Z,34.84
2018-06-20T19:17:23.839Z,34.69
2018-06-20T19:19:51.577Z,34.77
2018-06-20T19:22:19.145Z,35.28
2018-06-20T19:24:46.716Z,35.37
2018-06-20T19:27:14.402Z,35.38
2018-06-20T19:29:42.039Z,35.13
2018-06-20T19:32:09.924Z,35.13
2018-06-20T19:34:37.588Z,35.38
2018-06-20T19:37:05.220Z,35.24
2018-06-20T19:39:38.269Z,35.79
2018-06-20T19:42:06.131Z,35.76
2018-06-20T19:44:34.585Z,36.03
2018-06-20T19:47:03.426Z,35.61
2018-06-20T19:49:31.139Z,36.01
2018-06-20T19:51:58.772Z,35.77
2018-06-20T19:54:26.385Z,35.85
2018-06-20T19:56:54.400Z,35.90
2018-06-20T19:59:22.277Z,36.39
2018-06-20T20:01:50.191Z,36.75
2018-06-20T20:04:17.980Z,36.19
2018-06-20T20:06:45.757Z,36.34
2018-06-20T20:09:13.341Z,36.44
2018-06-20T20:11:41.707Z,36.96
2018-06-20T20:14:09.349Z,36.87
2018-06-20T20:16:37.270Z,36.90
2018-06-20T20:19:04.994Z,36.93
2018-06-20T20:21:32.909Z,36.91
2018-06-20T20:24:00.467Z,36.50
2018-06-20T20:26:28.232Z,36.99
2018-06-20T20:28:55.796Z,37.03
2018-06-20T20:31:23.425Z,36.82
2018-06-20T20:33:52.050Z,36.85
2018-06-20T20:36:19.702Z,37.52
2018-06-20T20:38:47.419Z,37.15
2018-06-20T20:41:15.201Z,37.17
2018-06-20T20:43:42.838Z,37.22
2018-06-20T20:46:10.450Z,37.99
2018-06-20T20:48:38.154Z,37.45
2018-06-20T20:51:05.794Z,37.54
2018-06-20T20:53:33.429Z,37.69
2018-06-20T20:56:01.220Z,38.20
2018-06-20T20:58:28.810Z,37.85
2018-06-20T21:00:56.420Z,37.87
2018-06-20T21:03:24.153Z,38.37
2018-06-20T21:05:51.738Z,38.10
2018-06-20T21:08:19.460Z,38.20
2018-06-20T21:10:47.492Z,38.72
2018-06-20T21:13:15.097Z,38.71
2018-06-20T21:15:42.711Z,39.02
2018-06-20T21:18:10.685Z,39.12
2018-06-20T21:20:38.449Z,38.73
2018-06-20T21:23:06.037Z,38.71
2018-06-20T21:25:33.990Z,38.78
2018-06-20T21:28:01.641Z,38.68
2018-06-20T21:30:29.357Z,39.52
2018-06-20T21:32:57.114Z,39.38
2018-06-20T21:35:24.668Z,39.24
2018-06-20T21:37:52.245Z,39.58
2018-06-20T21:40:20.047Z,39.11
2018-06-20T21:42:47.613Z,39.13
2018-06-20T21:45:15.171Z,39.18
2018-06-20T21:47:43.091Z,39.50
2018-06-20T21:50:10.644Z,39.80
2018-06-20T21:52:38.295Z,39.96
2018-06-20T21:55:06.120Z,40.06
2018-06-20T21:57:33.793Z,39.63
2018-06-20T22:00:01.500Z,39.92
2018-06-20T22:02:29.250Z,39.84
2018-06-20T22:04:56.870Z,39.72
2018-06-20T22:07:24.509Z,40.29
2018-06-20T22:09:52.455Z,40.02
2018-06-20T22:12:20.151Z,40.12
2018-06-20T22:14:47.730Z,40.69
2018-06-20T22:17:15.609Z,40.31
2018-06-20T22:19:43.334Z,40.19
2018-06-20T22:22:10.984Z,40.40
2018-06-20T22:24:38.818Z,40.41
2018-06-20T22:27:06.449Z,40.42
2018-06-20T22:29:34.090Z,40.52
2018-06-20T22:32:02.066Z,40.84
2018-06-20T22:34:29.621Z,40.78
2018-06-20T22:36:57.210Z,41.01
2018-06-20T22:39:25.406Z,41.17
2018-06-20T22:41:53.024Z,41.01
2018-06-20T22:44:20.645Z,41.22
2018-06-20T22:46:48.446Z,40.79
2018-06-20T22:49:16.096Z,41.36
2018-06-20T22:51:43.725Z,41.21
2018-06-20T22:54:11.861Z,41.07
2018-06-20T22:56:39.532Z,41.45
2018-06-20T22:59:07.079Z,40.99
2018-06-20T23:01:34.984Z,41.48
2018-06-20T23:04:02.608Z,41.22
2018-06-20T23:06:36.994Z,41.58
2018-06-20T23:09:07.109Z,41.10
2018-06-20T23:11:40.252Z,41.47
2018-06-20T23:14:08.226Z,41.25
2018-06-20T23:16:35.881Z,41.53
2018-06-20T23:19:03.563Z,41.69
2018-06-20T23:21:31.900Z,41.34
2018-06-20T23:23:59.470Z,41.65
2018-06-20T23:26:27.070Z,41.89
2018-06-20T23:28:54.927Z,41.91
2018-06-20T23:31:22.618Z,41.79
2018-06-20T23:33:50.299Z,41.57
2018-06-20T23:36:18.169Z,41.83
2018-06-20T23:38:45.736Z,41.94
2018-06-20T23:41:13.661Z,42.37
2018-06-20T23:43:41.839Z,41.81
2018-06-20T23:46:09.451Z,42.57
2018-06-20T23:48:37.117Z,41.98
2018-06-20T23:51:05.135Z,42.02
2018-06-20T23:53:32.808Z,42.59
2018-06-20T23:56:00.475Z,42.41
2018-06-20T23:58:28.585Z,42.71
